Time;durP1;ratioP1;P1;durP2;ratioP2;P2;SDS_P1;SDS_P2;PMS_P1;PMS_P2;Temp;Humidity;BMP_temperature;BMP_pressure;BME280_temperature;BME280_humidity;BME280_pressure;Samples;Min_cycle;Max_cycle;Signal;HPM_P1;HPM_P2
2021/07/13 00:02:15;;;;;;;1.30;1.20;;;21.30;98.00;;;;;;5094104;28;21042;-69
2021/07/13 00:04:42;;;;;;;2.43;1.70;;;21.20;98.00;;;;;;5093808;28;20958;-68
2021/07/13 00:07:11;;;;;;;1.63;1.40;;;21.20;98.00;;;;;;5093843;28;21022;-68
2021/07/13 00:09:38;;;;;;;1.80;1.63;;;21.10;98.00;;;;;;5093815;28;21073;-68
2021/07/13 00:12:07;;;;;;;1.80;1.40;;;21.10;98.00;;;;;;5092578;28;20542;-69
2021/07/13 00:14:42;;;;;;;2.10;1.67;;;21.10;98.00;;;;;;5093711;28;20969;-69
2021/07/13 00:17:09;;;;;;;1.60;1.30;;;21.00;98.00;;;;;;5092807;28;20540;-69
2021/07/13 00:19:38;;;;;;;1.73;1.63;;;21.00;98.00;;;;;;5093609;28;20512;-69
2021/07/13 00:22:05;;;;;;;2.43;1.77;;;20.90;98.00;;;;;;5093370;28;20507;-69
2021/07/13 00:24:35;;;;;;;1.30;1.30;;;20.90;98.00;;;;;;5093379;28;20837;-69
2021/07/13 00:27:04;;;;;;;2.70;1.60;;;20.80;98.00;;;;;;5092306;28;20576;-69
2021/07/13 00:29:31;;;;;;;1.50;1.40;;;20.90;98.00;;;;;;5093454;28;20451;-70
2021/07/13 00:31:58;;;;;;;1.30;1.30;;;20.80;98.00;;;;;;5093351;28;20962;-68
2021/07/13 00:34:24;;;;;;;1.40;1.27;;;20.80;98.00;;;;;;5093365;28;20952;-68
2021/07/13 00:36:51;;;;;;;1.40;1.13;;;20.80;98.00;;;;;;5093163;28;20444;-69
2021/07/13 00:39:18;;;;;;;1.37;1.33;;;20.70;98.00;;;;;;5093319;28;20889;-70
2021/07/13 00:41:47;;;;;;;1.63;1.50;;;20.70;98.00;;;;;;5093087;28;20519;-68
2021/07/13 00:44:14;;;;;;;1.57;1.30;;;20.70;98.00;;;;;;5093144;28;20490;-69
2021/07/13 00:46:47;;;;;;;1.33;1.27;;;20.90;98.00;;;;;;5091808;28;20484;-68
2021/07/13 00:49:16;;;;;;;1.30;1.20;;;20.90;98.00;;;;;;5092353;28;20484;-69
2021/07/13 00:51:44;;;;;;;1.73;1.10;;;20.80;98.00;;;;;;5092902;28;20483;-70
2021/07/13 00:54:12;;;;;;;1.60;1.43;;;20.70;98.00;;;;;;5093108;28;20463;-70
2021/07/13 00:56:42;;;;;;;1.97;1.40;;;20.70;98.00;;;;;;5093067;28;20934;-68
2021/07/13 00:59:11;;;;;;;1.47;1.10;;;20.70;98.00;;;;;;5093198;28;20495;-68
2021/07/13 01:01:39;;;;;;;1.50;1.40;;;20.60;98.00;;;;;;5092732;28;20536;-67
2021/07/13 01:04:08;;;;;;;1.30;1.10;;;20.60;98.00;;;;;;5092796;28;20943;-68
2021/07/13 01:06:44;;;;;;;1.20;1.10;;;20.60;98.00;;;;;;5092474;28;20494;-70
2021/07/13 01:09:18;;;;;;;1.20;1.13;;;20.40;98.00;;;;;;5092661;28;20455;-68
2021/07/13 01:11:53;;;;;;;1.20;1.10;;;20.20;98.00;;;;;;5092388;28;20488;-68
2021/07/13 01:14:32;;;;;;;1.60;1.27;;;20.20;98.00;;;;;;5092565;28;20520;-68
2021/07/13 01:17:03;;;;;;;1.30;1.10;;;20.20;98.00;;;;;;5092338;28;20456;-67
2021/07/13 01:19:53;;;;;;;1.40;1.37;;;20.10;98.00;;;;;;5092503;28;20652;-68
2021/07/13 01:22:26;;;;;;;1.33;1.30;;;20.10;98.00;;;;;;5092097;28;20523;-68
2021/07/13 01:25:07;;;;;;;1.30;1.27;;;20.00;98.00;;;;;;5092348;28;20800;-68
2021/07/13 01:27:54;;;;;;;1.20;1.10;;;20.00;98.00;;;;;;5091944;28;20960;-69
2021/07/13 01:30:26;;;;;;;1.63;1.43;;;20.00;98.00;;;;;;5089360;28;20459;-67
2021/07/13 01:33:03;;;;;;;1.50;1.37;;;20.10;98.00;;;;;;5091938;28;20452;-69
2021/07/13 01:35:37;;;;;;;1.50;1.20;;;20.00;98.00;;;;;;5092150;28;20473;-68
2021/07/13 01:38:09;;;;;;;1.50;1.17;;;19.90;98.00;;;;;;5091936;28;20829;-68
2021/07/13 01:40:42;;;;;;;1.40;1.10;;;19.80;98.00;;;;;;5091937;28;20902;-68
2021/07/13 01:43:10;;;;;;;1.20;1.00;;;19.80;98.00;;;;;;5091941;28;20460;-67
2021/07/13 01:45:40;;;;;;;1.20;1.10;;;19.90;98.00;;;;;;5091979;28;20619;-68
2021/07/13 01:48:10;;;;;;;1.20;1.10;;;19.90;98.00;;;;;;5091686;28;20546;-68
2021/07/13 01:50:39;;;;;;;1.93;1.10;;;19.80;98.00;;;;;;5091821;28;20460;-68
2021/07/13 01:53:07;;;;;;;1.40;1.40;;;19.80;98.00;;;;;;5091806;28;20455;-68
2021/07/13 01:55:35;;;;;;;1.33;1.20;;;19.90;98.00;;;;;;5091731;28;21026;-68
2021/07/13 01:58:03;;;;;;;1.20;1.03;;;19.90;98.00;;;;;;5091549;28;20463;-68
2021/07/13 02:00:31;;;;;;;1.70;1.30;;;20.10;98.00;;;;;;5090575;28;20456;-68
2021/07/13 02:03:02;;;;;;;1.30;1.10;;;20.20;98.00;;;;;;5091500;28;20491;-69
2021/07/13 02:05:30;;;;;;;1.20;1.20;;;20.10;98.00;;;;;;5091455;28;20504;-68
2021/07/13 02:08:02;;;;;;;1.30;1.10;;;20.10;98.00;;;;;;5091560;28;20505;-68
2021/07/13 02:10:29;;;;;;;1.30;1.20;;;20.10;98.00;;;;;;5091399;28;20495;-69
2021/07/13 02:12:57;;;;;;;1.73;1.30;;;20.10;98.00;;;;;;5090251;28;20860;-68
2021/07/13 02:15:24;;;;;;;1.20;1.10;;;20.20;98.00;;;;;;5090545;28;20456;-67
2021/07/13 02:17:54;;;;;;;1.20;1.20;;;20.20;98.00;;;;;;5091680;28;20498;-67
2021/07/13 02:20:24;;;;;;;1.20;1.13;;;20.20;98.00;;;;;;5091506;28;20460;-68
2021/07/13 02:22:53;;;;;;;1.37;1.33;;;20.20;98.00;;;;;;5091269;28;20463;-68
2021/07/13 02:25:21;;;;;;;1.20;1.00;;;20.20;98.00;;;;;;5091241;28;20499;-68
2021/07/13 02:27:53;;;;;;;1.20;1.10;;;20.10;98.00;;;;;;5091269;28;20483;-66
2021/07/13 02:30:20;;;;;;;1.70;1.50;;;20.20;98.00;;;;;;5091167;28;20492;-68
2021/07/13 02:32:54;;;;;;;1.43;1.20;;;20.30;98.00;;;;;;5091178;28;20483;-67
2021/07/13 02:35:31;;;;;;;1.20;1.20;;;20.20;98.00;;;;;;5091294;28;20488;-67
2021/07/13 02:38:00;;;;;;;1.20;1.20;;;20.20;98.00;;;;;;5091023;28;20470;-67
2021/07/13 02:40:27;;;;;;;1.30;1.30;;;20.20;98.00;;;;;;5089920;28;20475;-67
2021/07/13 02:42:54;;;;;;;1.40;1.30;;;20.10;98.00;;;;;;5089671;28;20496;-67
2021/07/13 02:45:25;;;;;;;1.87;1.60;;;20.00;98.00;;;;;;5091056;28;20513;-68
2021/07/13 02:47:55;;;;;;;1.20;1.10;;;20.00;98.00;;;;;;5090981;28;20482;-67
2021/07/13 02:50:25;;;;;;;1.20;1.20;;;20.00;98.00;;;;;;5090965;28;20535;-67
2021/07/13 02:52:55;;;;;;;1.50;1.20;;;19.90;98.00;;;;;;5090670;28;20450;-67
2021/07/13 02:55:24;;;;;;;1.20;1.00;;;19.90;98.00;;;;;;5091046;28;20545;-67
2021/07/13 02:57:52;;;;;;;1.50;1.20;;;19.90;98.00;;;;;;5090827;28;20459;-67
2021/07/13 03:00:21;;;;;;;1.70;1.33;;;19.80;98.00;;;;;;5090889;28;20494;-68
2021/07/13 03:02:49;;;;;;;1.20;1.20;;;19.90;98.00;;;;;;5090591;28;20512;-67
2021/07/13 03:05:19;;;;;;;1.30;1.30;;;19.90;98.00;;;;;;5090839;28;20463;-67
2021/07/13 03:07:49;;;;;;;1.23;1.13;;;19.80;98.00;;;;;;5089537;28;20526;-67
2021/07/13 03:10:19;;;;;;;1.20;1.10;;;19.70;98.00;;;;;;5090744;28;20481;-67
2021/07/13 03:12:47;;;;;;;1.43;1.10;;;19.90;98.00;;;;;;5093214;28;20459;-66
2021/07/13 03:15:14;;;;;;;1.40;1.10;;;19.90;98.00;;;;;;5094602;28;20543;-67
2021/07/13 03:17:42;;;;;;;1.50;1.37;;;19.90;98.00;;;;;;5094728;28;20491;-67
2021/07/13 03:20:10;;;;;;;1.30;1.20;;;19.90;98.00;;;;;;5094535;28;20542;-68
2021/07/13 03:22:41;;;;;;;1.40;1.20;;;19.70;98.00;;;;;;5094487;28;21028;-68
2021/07/13 03:25:16;;;;;;;1.23;1.10;;;19.50;98.00;;;;;;5094562;28;20471;-67
2021/07/13 03:27:52;;;;;;;1.93;1.30;;;19.30;98.00;;;;;;5094561;28;20455;-67
2021/07/13 03:30:20;;;;;;;1.83;1.40;;;19.40;98.00;;;;;;5094500;28;20459;-69
2021/07/13 03:32:49;;;;;;;1.20;1.10;;;19.30;98.00;;;;;;5094591;28;20941;-67
2021/07/13 03:35:17;;;;;;;1.20;1.20;;;19.20;98.00;;;;;;5094631;28;20451;-66
2021/07/13 03:37:47;;;;;;;1.30;1.20;;;19.10;98.00;;;;;;5094725;28;20494;-67
2021/07/13 03:40:17;;;;;;;1.30;1.20;;;19.10;98.00;;;;;;5076598;28;20554;-66
2021/07/13 03:42:44;;;;;;;1.50;1.10;;;19.10;98.00;;;;;;5094217;28;20576;-68
2021/07/13 03:45:15;;;;;;;1.23;1.13;;;19.00;98.00;;;;;;5094185;28;20513;-66
2021/07/13 03:47:47;;;;;;;1.50;1.37;;;19.10;98.00;;;;;;5094311;28;20463;-66
2021/07/13 03:50:14;;;;;;;1.40;1.10;;;19.30;98.00;;;;;;5094122;28;20452;-66
2021/07/13 03:52:41;;;;;;;1.30;1.10;;;19.30;98.00;;;;;;5093949;28;20930;-67
2021/07/13 03:55:10;;;;;;;1.60;1.30;;;19.30;98.00;;;;;;5094151;28;20456;-67
2021/07/13 03:57:38;;;;;;;1.53;1.27;;;19.30;98.00;;;;;;5094034;28;20464;-67
2021/07/13 04:00:09;;;;;;;1.20;1.20;;;19.20;98.00;;;;;;5093884;28;20969;-67
2021/07/13 04:02:36;;;;;;;1.30;1.00;;;19.30;98.00;;;;;;5093762;28;21028;-66
2021/07/13 04:05:04;;;;;;;1.20;1.10;;;19.40;98.00;;;;;;5092566;28;20456;-66
2021/07/13 04:07:31;;;;;;;1.20;1.20;;;19.50;98.00;;;;;;5093921;28;20452;-67
2021/07/13 04:10:03;;;;;;;1.77;1.17;;;19.50;98.00;;;;;;5093741;28;20456;-67
2021/07/13 04:12:30;;;;;;;1.73;1.10;;;19.40;98.00;;;;;;5092316;28;20460;-67
2021/07/13 04:14:58;;;;;;;1.33;1.17;;;19.30;98.00;;;;;;5093704;28;20553;-67
2021/07/13 04:17:25;;;;;;;1.70;1.17;;;19.20;98.00;;;;;;5093669;28;20936;-68
2021/07/13 04:19:52;;;;;;;1.20;1.20;;;19.20;98.00;;;;;;5093683;28;20805;-67
2021/07/13 04:22:20;;;;;;;1.20;1.10;;;19.20;98.00;;;;;;5093540;28;20480;-67
2021/07/13 04:24:48;;;;;;;1.30;1.10;;;19.30;98.00;;;;;;5092391;28;20464;-67
2021/07/13 04:27:16;;;;;;;1.10;1.07;;;19.40;98.00;;;;;;5093505;28;20650;-67
2021/07/13 04:29:43;;;;;;;2.27;1.23;;;19.30;98.00;;;;;;5093423;28;20487;-68
2021/07/13 04:32:14;;;;;;;1.20;1.10;;;19.30;98.00;;;;;;5093307;28;20471;-67
2021/07/13 04:34:41;;;;;;;1.30;1.20;;;19.30;98.00;;;;;;5093222;28;20458;-67
2021/07/13 04:37:08;;;;;;;1.20;1.10;;;19.30;98.00;;;;;;5093085;28;20459;-67
2021/07/13 04:39:35;;;;;;;1.33;1.27;;;19.30;98.00;;;;;;5093161;28;20509;-68
2021/07/13 04:42:02;;;;;;;1.20;1.00;;;19.40;98.00;;;;;;5093171;28;20545;-67
2021/07/13 04:44:29;;;;;;;1.20;1.10;;;19.50;98.00;;;;;;5093123;28;20463;-67
2021/07/13 04:46:56;;;;;;;1.67;1.20;;;19.50;98.00;;;;;;5091803;28;20448;-66
2021/07/13 04:49:25;;;;;;;1.40;1.20;;;19.40;98.00;;;;;;5093091;28;20487;-67
2021/07/13 04:51:52;;;;;;;1.20;1.00;;;19.40;98.00;;;;;;5093095;28;20455;-67
2021/07/13 04:54:20;;;;;;;1.20;1.10;;;19.50;98.00;;;;;;5093344;28;20513;-67
2021/07/13 04:56:47;;;;;;;1.20;1.20;;;19.50;98.00;;;;;;5091838;28;20460;-67
2021/07/13 04:59:14;;;;;;;1.97;1.20;;;19.40;98.00;;;;;;5093027;28;20738;-66
2021/07/13 05:01:41;;;;;;;1.20;1.00;;;19.40;98.00;;;;;;5092619;28;20476;-67
2021/07/13 05:04:09;;;;;;;1.70;1.20;;;19.40;98.00;;;;;;5092700;28;20455;-67
2021/07/13 05:06:37;;;;;;;1.20;1.17;;;19.40;98.00;;;;;;5092629;28;20970;-67
2021/07/13 05:09:05;;;;;;;1.20;1.20;;;19.60;98.00;;;;;;5092696;28;20487;-68
2021/07/13 05:11:33;;;;;;;1.20;1.10;;;19.70;98.00;;;;;;5092133;28;21014;-67
2021/07/13 05:14:01;;;;;;;1.20;1.10;;;19.70;98.00;;;;;;5092504;28;20459;-67
2021/07/13 05:16:28;;;;;;;1.20;1.00;;;19.60;98.00;;;;;;5092498;28;20544;-67
2021/07/13 05:18:55;;;;;;;1.20;1.07;;;19.60;98.00;;;;;;5092478;28;20835;-66
2021/07/13 05:21:22;;;;;;;1.53;1.40;;;19.60;98.00;;;;;;5092096;28;20466;-67
2021/07/13 05:23:50;;;;;;;1.20;1.00;;;19.60;98.00;;;;;;5092067;28;20517;-67
2021/07/13 05:26:17;;;;;;;1.53;1.20;;;19.70;98.00;;;;;;5092231;28;20488;-67
2021/07/13 05:28:47;;;;;;;1.40;1.30;;;19.70;98.00;;;;;;5092216;28;20507;-67
2021/07/13 05:31:15;;;;;;;1.30;1.23;;;19.80;98.00;;;;;;5092122;28;20886;-67
2021/07/13 05:33:42;;;;;;;1.77;1.30;;;19.80;98.00;;;;;;5092031;28;20483;-67
2021/07/13 05:36:13;;;;;;;1.40;1.20;;;19.90;98.00;;;;;;5091930;28;20487;-68
2021/07/13 05:38:40;;;;;;;1.30;1.20;;;19.80;98.00;;;;;;5090797;28;20491;-68
2021/07/13 05:41:08;;;;;;;1.40;1.10;;;19.70;98.00;;;;;;5091905;28;20487;-67
2021/07/13 05:43:36;;;;;;;1.77;1.03;;;19.70;98.00;;;;;;5091651;28;21056;-67
2021/07/13 05:46:03;;;;;;;1.60;1.10;;;19.80;98.00;;;;;;5091873;28;20557;-67
2021/07/13 05:48:29;;;;;;;1.20;1.10;;;19.80;98.00;;;;;;5091990;28;20505;-67
2021/07/13 05:50:56;;;;;;;1.27;1.20;;;19.90;98.00;;;;;;5091935;28;20492;-67
2021/07/13 05:53:23;;;;;;;1.20;1.17;;;19.80;98.00;;;;;;5091528;28;20480;-67
2021/07/13 05:55:51;;;;;;;2.07;1.47;;;19.80;98.00;;;;;;5091766;28;20479;-67
2021/07/13 05:58:22;;;;;;;1.20;1.00;;;19.90;98.00;;;;;;5091619;28;20460;-67
2021/07/13 06:00:50;;;;;;;1.20;1.00;;;19.90;98.00;;;;;;5091034;28;20475;-68
2021/07/13 06:03:17;;;;;;;1.20;1.07;;;20.00;98.00;;;;;;5091281;28;20476;-68
2021/07/13 06:05:45;;;;;;;1.20;1.00;;;20.20;98.00;;;;;;5091450;28;20452;-68
2021/07/13 06:08:12;;;;;;;1.27;1.17;;;20.30;98.00;;;;;;5091353;28;20444;-67
2021/07/13 06:10:39;;;;;;;1.20;1.10;;;20.50;98.00;;;;;;5091570;28;20492;-67
2021/07/13 06:13:07;;;;;;;1.20;1.10;;;20.60;98.00;;;;;;5091608;28;20447;-67
2021/07/13 06:15:36;;;;;;;1.27;1.13;;;20.60;98.00;;;;;;5091648;28;20517;-67
2021/07/13 06:18:03;;;;;;;1.20;1.17;;;20.50;98.00;;;;;;5090381;28;20488;-67
2021/07/13 06:20:30;;;;;;;1.57;1.43;;;20.20;98.00;;;;;;5091523;28;20499;-67
2021/07/13 06:22:57;;;;;;;1.53;1.33;;;20.10;98.00;;;;;;5090744;28;20484;-68
2021/07/13 06:25:24;;;;;;;1.80;1.40;;;20.00;98.00;;;;;;5091180;28;20520;-67
2021/07/13 06:27:51;;;;;;;1.20;1.03;;;20.00;98.00;;;;;;5091137;28;21018;-69
2021/07/13 06:30:19;;;;;;;1.50;1.27;;;20.00;98.00;;;;;;5089830;28;20495;-67
2021/07/13 06:32:48;;;;;;;1.20;1.10;;;20.00;98.00;;;;;;5091190;28;20483;-67
2021/07/13 06:35:15;;;;;;;1.20;1.10;;;20.10;98.00;;;;;;5091091;28;20486;-67
2021/07/13 06:37:43;;;;;;;1.40;1.10;;;20.10;98.00;;;;;;5091137;28;20505;-67
2021/07/13 06:40:11;;;;;;;1.30;1.10;;;20.10;98.00;;;;;;5090924;28;20494;-66
2021/07/13 06:42:39;;;;;;;1.30;1.30;;;20.20;98.00;;;;;;5090952;28;20537;-67
2021/07/13 06:45:08;;;;;;;1.53;1.40;;;20.30;98.00;;;;;;5089541;28;20452;-67
2021/07/13 06:47:36;;;;;;;1.53;1.30;;;20.40;98.00;;;;;;5090294;28;20488;-67
2021/07/13 06:50:09;;;;;;;1.37;1.30;;;20.50;98.00;;;;;;5089853;28;20447;-68
2021/07/13 06:52:36;;;;;;;1.20;1.10;;;20.50;98.00;;;;;;5090806;28;20495;-67
2021/07/13 06:55:07;;;;;;;1.53;1.43;;;20.40;98.00;;;;;;5090700;28;20454;-68
2021/07/13 06:57:34;;;;;;;1.47;1.37;;;20.30;98.00;;;;;;5090557;28;20460;-68
2021/07/13 07:00:01;;;;;;;1.20;1.10;;;20.20;98.00;;;;;;5090808;28;20547;-67
2021/07/13 07:02:28;;;;;;;1.20;1.10;;;20.10;98.00;;;;;;5090475;28;20486;-68
2021/07/13 07:04:55;;;;;;;1.20;1.10;;;20.00;98.00;;;;;;5090774;28;20870;-68
2021/07/13 07:07:23;;;;;;;1.30;1.03;;;19.80;98.00;;;;;;5090739;28;20940;-67
2021/07/13 07:09:50;;;;;;;1.30;1.07;;;19.80;98.00;;;;;;5090779;28;20541;-68
2021/07/13 07:12:18;;;;;;;1.73;1.23;;;19.80;98.00;;;;;;5089450;28;20481;-67
2021/07/13 07:14:45;;;;;;;1.50;1.20;;;19.90;98.00;;;;;;5090691;28;20460;-69
2021/07/13 07:17:12;;;;;;;1.93;1.37;;;19.90;98.00;;;;;;5090905;28;20524;-67
2021/07/13 07:19:39;;;;;;;1.80;1.23;;;19.90;98.00;;;;;;5090874;28;20492;-67
2021/07/13 07:22:07;;;;;;;1.20;1.20;;;19.70;98.00;;;;;;5090939;28;20879;-68
2021/07/13 07:24:35;;;;;;;1.30;1.10;;;19.70;98.00;;;;;;5090282;28;20499;-68
2021/07/13 07:27:02;;;;;;;1.50;1.10;;;19.60;98.00;;;;;;5090702;28;20517;-67
2021/07/13 07:29:29;;;;;;;2.13;1.23;;;19.60;98.00;;;;;;5090606;28;21039;-67
2021/07/13 07:31:56;;;;;;;1.80;1.23;;;19.80;98.00;;;;;;5091648;28;20717;-68
2021/07/13 07:34:23;;;;;;;2.43;1.40;;;19.90;98.00;;;;;;5092107;28;20443;-68
2021/07/13 07:36:50;;;;;;;1.30;1.20;;;19.90;98.00;;;;;;5091171;28;20887;-67
2021/07/13 07:39:17;;;;;;;1.10;1.10;;;19.70;98.00;;;;;;5091860;28;20986;-69
2021/07/13 07:41:47;;;;;;;1.33;1.17;;;19.60;98.00;;;;;;5091628;28;20497;-67
2021/07/13 07:44:14;;;;;;;1.20;1.10;;;19.70;98.00;;;;;;5090834;28;20518;-67
2021/07/13 07:46:42;;;;;;;1.73;1.30;;;19.70;98.00;;;;;;5100134;28;20483;-66
2021/07/13 07:49:09;;;;;;;1.40;1.13;;;19.50;98.00;;;;;;5105836;28;20547;-69
2021/07/13 07:51:36;;;;;;;1.97;1.37;;;19.40;98.00;;;;;;5102297;28;20836;-68
2021/07/13 07:54:03;;;;;;;1.40;1.40;;;19.50;98.00;;;;;;5090259;28;20548;-68
2021/07/13 07:56:30;;;;;;;2.93;1.20;;;19.60;98.00;;;;;;5091547;28;20447;-67
2021/07/13 07:59:00;;;;;;;1.20;1.20;;;19.60;98.00;;;;;;5104354;28;20463;-66
2021/07/13 08:01:29;;;;;;;1.30;1.10;;;19.80;98.00;;;;;;5106923;28;20903;-67
2021/07/13 08:03:57;;;;;;;1.80;1.20;;;19.80;98.00;;;;;;5092978;28;20514;-69
2021/07/13 08:06:24;;;;;;;1.40;1.23;;;20.00;98.00;;;;;;5101595;28;20499;-69
2021/07/13 08:08:51;;;;;;;1.27;1.23;;;20.30;98.00;;;;;;5099583;28;20490;-68
2021/07/13 08:11:18;;;;;;;4.03;1.40;;;20.60;98.00;;;;;;5101363;28;20499;-69
2021/07/13 08:13:45;;;;;;;1.47;1.30;;;20.80;98.00;;;;;;5103278;28;20953;-69
2021/07/13 08:16:13;;;;;;;1.50;1.20;;;20.70;98.00;;;;;;5108508;28;20845;-68
2021/07/13 08:18:40;;;;;;;1.50;1.40;;;20.60;98.00;;;;;;5100928;28;20521;-69
2021/07/13 08:21:07;;;;;;;3.07;1.27;;;20.60;98.00;;;;;;5092976;28;20513;-69
2021/07/13 08:23:34;;;;;;;1.40;1.13;;;21.00;98.00;;;;;;5101146;28;20531;-69
2021/07/13 08:26:01;;;;;;;1.20;1.00;;;21.20;98.00;;;;;;5108174;28;20452;-69
2021/07/13 08:28:32;;;;;;;1.30;1.30;;;21.50;98.00;;;;;;5081296;28;20511;-69
2021/07/13 08:30:59;;;;;;;1.60;1.47;;;21.80;98.00;;;;;;5091138;28;20502;-69
2021/07/13 08:33:28;;;;;;;1.30;1.20;;;22.00;98.00;;;;;;5101681;28;20467;-69
2021/07/13 08:35:55;;;;;;;1.33;1.17;;;21.90;98.00;;;;;;5106252;28;20451;-69
2021/07/13 08:38:22;;;;;;;2.27;1.67;;;21.60;98.00;;;;;;5092263;28;20509;-69
2021/07/13 08:40:50;;;;;;;1.43;1.10;;;21.40;98.00;;;;;;5081155;28;20489;-69
2021/07/13 08:43:19;;;;;;;1.70;1.43;;;21.30;98.00;;;;;;5091115;28;20487;-67
2021/07/13 08:45:47;;;;;;;1.30;1.30;;;21.10;98.00;;;;;;5093020;28;20467;-66
2021/07/13 08:48:14;;;;;;;1.70;1.20;;;20.90;98.00;;;;;;5108534;28;20482;-66
2021/07/13 08:50:47;;;;;;;1.30;1.10;;;20.90;98.00;;;;;;5098101;28;20525;-68
2021/07/13 08:53:14;;;;;;;1.53;1.40;;;20.80;98.00;;;;;;5107104;28;20486;-68
2021/07/13 08:55:41;;;;;;;1.53;1.53;;;20.70;98.00;;;;;;5099946;28;21069;-68
2021/07/13 08:58:14;;;;;;;1.30;1.30;;;20.60;98.00;;;;;;5100665;28;20479;-67
2021/07/13 09:00:41;;;;;;;1.90;1.47;;;20.30;98.00;;;;;;5098802;28;20771;-66
2021/07/13 09:03:12;;;;;;;1.43;1.40;;;20.30;98.00;;;;;;5091096;28;21008;-67
2021/07/13 09:05:47;;;;;;;1.17;1.17;;;20.10;98.00;;;;;;5102021;28;20464;-67
2021/07/13 09:08:15;;;;;;;1.50;1.40;;;20.10;98.00;;;;;;5099870;28;20525;-67
2021/07/13 09:11:00;;;;;;;1.47;1.30;;;19.90;98.00;;;;;;5099293;28;20516;-67
2021/07/13 09:13:30;;;;;;;1.80;1.60;;;19.90;98.00;;;;;;5102452;28;20464;-67
2021/07/13 09:15:57;;;;;;;1.10;1.00;;;20.10;98.00;;;;;;5092711;28;20907;-67
2021/07/13 09:18:32;;;;;;;1.30;1.00;;;19.90;98.00;;;;;;5096348;28;20451;-67
2021/07/13 09:21:20;;;;;;;1.43;1.30;;;19.90;98.00;;;;;;5092455;28;20495;-67
2021/07/13 09:24:06;;;;;;;1.20;1.17;;;19.80;98.00;;;;;;5093817;28;20579;-67
2021/07/13 09:26:46;;;;;;;1.40;1.30;;;19.80;98.00;;;;;;5098896;28;20974;-67
2021/07/13 09:29:35;;;;;;;2.73;1.23;;;19.90;98.00;;;;;;5093712;28;20459;-66
2021/07/13 09:32:24;;;;;;;1.40;1.40;;;19.80;98.00;;;;;;5098972;27;20653;-68
2021/07/13 09:34:52;;;;;;;1.73;1.30;;;19.60;98.00;;;;;;5099290;28;20474;-67
2021/07/13 09:37:23;;;;;;;1.50;1.20;;;19.60;98.00;;;;;;5099305;28;20512;-68
2021/07/13 09:39:58;;;;;;;1.40;1.10;;;19.40;98.00;;;;;;5100783;28;20467;-70
2021/07/13 09:42:26;;;;;;;1.20;1.20;;;19.40;98.00;;;;;;5099782;28;21013;-68
2021/07/13 09:44:53;;;;;;;1.20;1.10;;;19.40;98.00;;;;;;5100712;28;20996;-67
2021/07/13 09:47:30;;;;;;;1.70;1.20;;;19.30;98.00;;;;;;5109310;28;20459;-66
2021/07/13 09:49:58;;;;;;;1.37;1.33;;;19.30;98.00;;;;;;5085945;28;20452;-66
2021/07/13 09:52:27;;;;;;;1.97;1.40;;;19.30;98.00;;;;;;5091118;28;20460;-67
2021/07/13 09:54:54;;;;;;;1.10;1.00;;;19.30;98.00;;;;;;5100085;28;20531;-66
2021/07/13 09:57:23;;;;;;;1.53;1.20;;;19.30;98.00;;;;;;5090359;28;20848;-66
2021/07/13 09:59:52;;;;;;;1.10;1.10;;;19.10;98.00;;;;;;5107709;28;20459;-67
2021/07/13 10:02:23;;;;;;;1.10;1.00;;;19.00;98.00;;;;;;5091092;28;21113;-69
2021/07/13 10:04:50;;;;;;;1.10;1.00;;;18.80;98.00;;;;;;5099592;28;20496;-67
2021/07/13 10:07:19;;;;;;;1.10;1.00;;;18.70;98.00;;;;;;5107917;28;20451;-68
2021/07/13 10:09:49;;;;;;;1.43;1.10;;;18.60;98.00;;;;;;5106693;28;20475;-69
2021/07/13 10:12:19;;;;;;;1.10;1.00;;;18.30;98.00;;;;;;5091992;28;21100;-68
2021/07/13 10:14:48;;;;;;;1.30;1.10;;;18.30;98.00;;;;;;5105710;28;21044;-68
2021/07/13 10:17:17;;;;;;;1.10;1.00;;;18.10;98.00;;;;;;5105624;28;20471;-68
2021/07/13 10:19:51;;;;;;;1.10;1.00;;;18.10;98.00;;;;;;5100593;28;20530;-70
2021/07/13 10:22:20;;;;;;;1.10;1.00;;;18.20;98.00;;;;;;5104986;28;20459;-68
2021/07/13 10:24:53;;;;;;;1.10;0.90;;;18.00;98.00;;;;;;5101816;28;20495;-68
2021/07/13 10:27:28;;;;;;;1.90;1.43;;;17.90;98.00;;;;;;5107388;28;20504;-68
2021/07/13 10:29:56;;;;;;;1.10;1.00;;;17.80;98.00;;;;;;5103785;28;20490;-68
2021/07/13 10:32:40;;;;;;;1.10;1.07;;;17.70;98.00;;;;;;5093885;28;20470;-68
2021/07/13 10:35:24;;;;;;;1.10;0.90;;;17.50;98.00;;;;;;5098908;28;20463;-68
2021/07/13 10:37:52;;;;;;;1.10;1.00;;;17.40;98.00;;;;;;5099811;28;20470;-68
2021/07/13 10:40:38;;;;;;;1.10;1.00;;;17.40;98.00;;;;;;5107766;28;20465;-68
2021/07/13 10:43:06;;;;;;;1.10;1.00;;;17.40;98.00;;;;;;5091052;28;20940;-69
2021/07/13 10:45:35;;;;;;;1.10;1.00;;;17.40;98.00;;;;;;5090016;28;20544;-68
2021/07/13 10:48:06;;;;;;;1.10;1.00;;;17.50;98.00;;;;;;5106154;28;20519;-69
2021/07/13 10:50:41;;;;;;;1.10;0.90;;;17.50;98.00;;;;;;5096219;28;20490;-68
2021/07/13 10:53:14;;;;;;;1.10;1.00;;;17.50;98.00;;;;;;5092403;28;20455;-68
2021/07/13 10:55:57;;;;;;;1.10;1.10;;;17.50;98.00;;;;;;5096408;28;20460;-67
2021/07/13 10:58:29;;;;;;;1.10;1.00;;;17.50;98.00;;;;;;5090783;28;20487;-68
2021/07/13 11:01:10;;;;;;;1.10;1.00;;;17.70;98.00;;;;;;5098224;28;21014;-69
2021/07/13 11:03:58;;;;;;;1.13;1.00;;;17.90;98.00;;;;;;5098884;28;20490;-68
2021/07/13 11:06:52;;;;;;;1.10;1.00;;;17.80;98.00;;;;;;5098711;28;20456;-69
2021/07/13 11:09:31;;;;;;;1.10;1.10;;;17.90;98.00;;;;;;5088337;28;20474;-68
2021/07/13 11:12:18;;;;;;;1.10;1.00;;;17.90;98.00;;;;;;5097675;28;20996;-68
2021/07/13 11:15:03;;;;;;;1.10;1.00;;;18.00;98.00;;;;;;5098299;28;20464;-67
2021/07/13 11:17:32;;;;;;;1.10;1.00;;;18.20;98.00;;;;;;5070308;28;20526;-69
2021/07/13 11:20:14;;;;;;;1.30;1.00;;;18.40;98.00;;;;;;5106980;28;20539;-69
2021/07/13 11:22:44;;;;;;;1.20;1.00;;;18.20;98.00;;;;;;5083830;28;20544;-67
2021/07/13 11:25:29;;;;;;;1.20;1.07;;;18.20;98.00;;;;;;5107399;28;20959;-67
2021/07/13 11:28:06;;;;;;;1.10;0.90;;;18.30;98.00;;;;;;5102925;28;20456;-68
2021/07/13 11:30:33;;;;;;;1.20;1.00;;;18.20;98.00;;;;;;5104117;28;20860;-67
2021/07/13 11:33:02;;;;;;;1.20;1.00;;;18.00;98.00;;;;;;5107692;28;20491;-67
2021/07/13 11:35:29;;;;;;;1.13;1.00;;;18.00;98.00;;;;;;5110380;28;20482;-69
2021/07/13 11:37:57;;;;;;;1.20;1.00;;;18.00;98.00;;;;;;5101705;28;20459;-67
2021/07/13 11:40:32;;;;;;;1.10;1.00;;;18.10;98.00;;;;;;5102640;28;20486;-68
2021/07/13 11:43:00;;;;;;;1.40;1.00;;;18.30;98.00;;;;;;5110535;28;20545;-69
2021/07/13 11:45:30;;;;;;;1.20;1.10;;;18.40;98.00;;;;;;5102389;28;20563;-68
2021/07/13 11:48:07;;;;;;;1.20;1.00;;;18.50;98.00;;;;;;5101297;28;20447;-67
2021/07/13 11:50:36;;;;;;;1.13;1.10;;;18.50;98.00;;;;;;5100502;28;20849;-67
2021/07/13 11:53:22;;;;;;;1.10;1.00;;;18.50;98.00;;;;;;5093765;28;20460;-69
2021/07/13 11:55:57;;;;;;;1.60;1.10;;;18.70;98.00;;;;;;5102186;28;20942;-69
2021/07/13 11:58:28;;;;;;;1.60;1.10;;;18.70;98.00;;;;;;5099667;28;20489;-68
2021/07/13 12:01:15;;;;;;;1.10;1.10;;;18.70;98.00;;;;;;5093268;28;20514;-68
2021/07/13 12:03:42;;;;;;;1.40;1.20;;;18.60;98.00;;;;;;5101374;28;20544;-68
2021/07/13 12:06:11;;;;;;;1.20;1.10;;;18.70;98.00;;;;;;5096640;28;20939;-69
2021/07/13 12:08:39;;;;;;;1.20;1.00;;;18.50;98.00;;;;;;5101122;28;20538;-66
2021/07/13 12:11:06;;;;;;;1.20;1.03;;;18.50;98.00;;;;;;5087344;28;20464;-67
2021/07/13 12:13:34;;;;;;;1.20;1.00;;;18.50;98.00;;;;;;5094591;28;20498;-68
2021/07/13 12:16:18;;;;;;;1.33;1.03;;;18.50;98.00;;;;;;5101575;28;20541;-68
2021/07/13 12:18:46;;;;;;;1.30;1.10;;;18.60;98.00;;;;;;5096108;28;20529;-69
2021/07/13 12:21:14;;;;;;;1.20;0.93;;;18.60;98.00;;;;;;5106340;28;20480;-68
2021/07/13 12:23:42;;;;;;;1.20;1.10;;;18.60;98.00;;;;;;5095461;28;20888;-68
2021/07/13 12:26:29;;;;;;;1.20;1.03;;;18.60;98.00;;;;;;5093067;28;20468;-70
2021/07/13 12:29:06;;;;;;;1.20;1.10;;;18.70;98.00;;;;;;5108894;28;20483;-67
2021/07/13 12:31:39;;;;;;;1.20;0.90;;;18.70;98.00;;;;;;5092978;28;20452;-69
2021/07/13 12:34:16;;;;;;;1.20;1.00;;;18.80;98.00;;;;;;5109595;28;20511;-68
2021/07/13 12:36:44;;;;;;;1.20;1.00;;;18.70;98.00;;;;;;5092529;28;20858;-71
2021/07/13 12:39:18;;;;;;;1.20;1.10;;;18.70;98.00;;;;;;5098705;28;20974;-68
2021/07/13 12:41:46;;;;;;;1.20;1.00;;;18.80;98.00;;;;;;5100018;28;20567;-70
2021/07/13 12:44:35;;;;;;;1.20;1.00;;;18.80;98.00;;;;;;5107743;28;20934;-68
2021/07/13 12:47:21;;;;;;;1.20;1.00;;;18.80;98.00;;;;;;5096939;28;20480;-69
2021/07/13 12:50:05;;;;;;;1.30;1.00;;;18.80;98.00;;;;;;5095485;28;21029;-68
2021/07/13 12:52:33;;;;;;;1.20;1.00;;;18.80;98.00;;;;;;5100472;28;20532;-69
2021/07/13 12:55:02;;;;;;;1.20;1.00;;;18.70;98.00;;;;;;5109669;28;20454;-69
2021/07/13 12:57:31;;;;;;;1.40;1.10;;;18.60;98.00;;;;;;5072405;28;20935;-69
2021/07/13 13:00:00;;;;;;;1.20;1.10;;;18.70;98.00;;;;;;5073182;28;20459;-68
2021/07/13 13:02:28;;;;;;;1.30;1.10;;;18.70;98.00;;;;;;5072973;28;20448;-67
2021/07/13 13:04:56;;;;;;;1.20;1.00;;;18.50;98.00;;;;;;5073190;28;20539;-67